sensor_id;sensor_type;location;lat;lon;timestamp;temperature;humidity
11035;DHT22;5571;48.110;-1.706;2023-07-13T00:00:13;17.90;99.90
11035;DHT22;5571;48.110;-1.706;2023-07-13T00:02:42;17.90;99.90
11035;DHT22;5571;48.110;-1.706;2023-07-13T00:05:08;17.80;99.90
11035;DHT22;5571;48.110;-1.706;2023-07-13T00:07:34;17.60;99.90
11035;DHT22;5571;48.110;-1.706;2023-07-13T00:10:00;17.50;99.90
11035;DHT22;5571;48.110;-1.706;2023-07-13T00:12:35;17.50;99.90
11035;DHT22;5571;48.110;-1.706;2023-07-13T00:15:05;17.40;99.90
11035;DHT22;5571;48.110;-1.706;2023-07-13T00:17:31;17.50;99.90
11035;DHT22;5571;48.110;-1.706;2023-07-13T00:19:57;17.50;99.90
11035;DHT22;5571;48.110;-1.706;2023-07-13T00:22:24;17.50;99.90
11035;DHT22;5571;48.110;-1.706;2023-07-13T00:24:52;17.40;99.90
11035;DHT22;5571;48.110;-1.706;2023-07-13T00:27:18;17.40;99.90
11035;DHT22;5571;48.110;-1.706;2023-07-13T00:29:43;17.50;99.90
11035;DHT22;5571;48.110;-1.706;2023-07-13T00:32:10;17.50;99.90
11035;DHT22;5571;48.110;-1.706;2023-07-13T00:34:37;17.60;99.90
11035;DHT22;5571;48.110;-1.706;2023-07-13T00:37:04;17.60;99.90
11035;DHT22;5571;48.110;-1.706;2023-07-13T00:39:32;17.40;99.90
11035;DHT22;5571;48.110;-1.706;2023-07-13T00:41:58;17.40;99.90
11035;DHT22;5571;48.110;-1.706;2023-07-13T00:44:24;17.30;99.90
11035;DHT22;5571;48.110;-1.706;2023-07-13T00:46:49;17.10;99.90
11035;DHT22;5571;48.110;-1.706;2023-07-13T00:49:18;17.00;99.90
11035;DHT22;5571;48.110;-1.706;2023-07-13T00:51:50;17.00;99.90
11035;DHT22;5571;48.110;-1.706;2023-07-13T00:54:25;17.00;99.90
11035;DHT22;5571;48.110;-1.706;2023-07-13T00:56:54;16.90;99.90
11035;DHT22;5571;48.110;-1.706;2023-07-13T00:59:21;16.80;99.90
11035;DHT22;5571;48.110;-1.706;2023-07-13T01:01:47;16.60;99.90
11035;DHT22;5571;48.110;-1.706;2023-07-13T01:04:13;16.60;99.90
11035;DHT22;5571;48.110;-1.706;2023-07-13T01:06:40;16.60;99.90
11035;DHT22;5571;48.110;-1.706;2023-07-13T01:09:07;16.60;99.90
11035;DHT22;5571;48.110;-1.706;2023-07-13T01:11:33;16.70;99.90
11035;DHT22;5571;48.110;-1.706;2023-07-13T01:14:00;16.60;99.90
11035;DHT22;5571;48.110;-1.706;2023-07-13T01:16:35;16.60;99.90
11035;DHT22;5571;48.110;-1.706;2023-07-13T01:19:04;16.60;99.90
11035;DHT22;5571;48.110;-1.706;2023-07-13T01:21:33;16.50;99.90
11035;DHT22;5571;48.110;-1.706;2023-07-13T01:24:00;16.50;99.90
11035;DHT22;5571;48.110;-1.706;2023-07-13T01:26:25;16.40;99.90
11035;DHT22;5571;48.110;-1.706;2023-07-13T01:28:52;16.40;99.90
11035;DHT22;5571;48.110;-1.706;2023-07-13T01:31:18;16.40;99.90
11035;DHT22;5571;48.110;-1.706;2023-07-13T01:33:43;16.40;99.90
11035;DHT22;5571;48.110;-1.706;2023-07-13T01:36:10;16.50;99.90
11035;DHT22;5571;48.110;-1.706;2023-07-13T01:38:36;16.40;99.90
11035;DHT22;5571;48.110;-1.706;2023-07-13T01:41:02;16.40;99.90
11035;DHT22;5571;48.110;-1.706;2023-07-13T01:43:28;16.30;99.90
11035;DHT22;5571;48.110;-1.706;2023-07-13T01:45:54;16.20;99.90
11035;DHT22;5571;48.110;-1.706;2023-07-13T01:48:20;16.20;99.90
11035;DHT22;5571;48.110;-1.706;2023-07-13T01:50:45;16.30;99.90
11035;DHT22;5571;48.110;-1.706;2023-07-13T01:53:11;16.40;99.90
11035;DHT22;5571;48.110;-1.706;2023-07-13T01:55:37;16.40;99.90
11035;DHT22;5571;48.110;-1.706;2023-07-13T01:58:04;16.30;99.90
11035;DHT22;5571;48.110;-1.706;2023-07-13T02:00:30;16.40;99.90
11035;DHT22;5571;48.110;-1.706;2023-07-13T02:02:55;16.30;99.90
11035;DHT22;5571;48.110;-1.706;2023-07-13T02:05:21;16.30;99.90
11035;DHT22;5571;48.110;-1.706;2023-07-13T02:07:47;16.30;99.90
11035;DHT22;5571;48.110;-1.706;2023-07-13T02:10:13;16.40;99.90
11035;DHT22;5571;48.110;-1.706;2023-07-13T02:12:39;16.40;99.90
11035;DHT22;5571;48.110;-1.706;2023-07-13T02:15:06;16.40;99.90
11035;DHT22;5571;48.110;-1.706;2023-07-13T02:17:32;16.40;99.90
11035;DHT22;5571;48.110;-1.706;2023-07-13T02:19:58;16.50;99.90
11035;DHT22;5571;48.110;-1.706;2023-07-13T02:22:23;16.30;99.90
11035;DHT22;5571;48.110;-1.706;2023-07-13T02:24:49;16.40;99.90
11035;DHT22;5571;48.110;-1.706;2023-07-13T02:27:15;16.30;99.90
11035;DHT22;5571;48.110;-1.706;2023-07-13T02:29:41;16.30;99.90
11035;DHT22;5571;48.110;-1.706;2023-07-13T02:32:07;16.40;99.90
11035;DHT22;5571;48.110;-1.706;2023-07-13T02:34:33;16.30;99.90
11035;DHT22;5571;48.110;-1.706;2023-07-13T02:36:59;16.30;99.90
11035;DHT22;5571;48.110;-1.706;2023-07-13T02:39:24;16.30;99.90
11035;DHT22;5571;48.110;-1.706;2023-07-13T02:41:50;16.30;99.90
11035;DHT22;5571;48.110;-1.706;2023-07-13T02:44:15;16.40;99.90
11035;DHT22;5571;48.110;-1.706;2023-07-13T02:46:41;16.30;99.90
11035;DHT22;5571;48.110;-1.706;2023-07-13T02:49:07;16.40;99.90
11035;DHT22;5571;48.110;-1.706;2023-07-13T02:51:33;16.50;99.90
11035;DHT22;5571;48.110;-1.706;2023-07-13T02:54:00;16.40;99.90
11035;DHT22;5571;48.110;-1.706;2023-07-13T02:56:28;16.40;99.90
11035;DHT22;5571;48.110;-1.706;2023-07-13T02:58:54;16.40;99.90
11035;DHT22;5571;48.110;-1.706;2023-07-13T03:01:20;16.40;99.90
11035;DHT22;5571;48.110;-1.706;2023-07-13T03:03:48;16.40;99.90
11035;DHT22;5571;48.110;-1.706;2023-07-13T03:06:14;16.40;99.90
11035;DHT22;5571;48.110;-1.706;2023-07-13T03:08:40;16.50;99.90
11035;DHT22;5571;48.110;-1.706;2023-07-13T03:11:09;16.50;99.90
11035;DHT22;5571;48.110;-1.706;2023-07-13T03:13:36;16.40;99.90
11035;DHT22;5571;48.110;-1.706;2023-07-13T03:16:02;16.40;99.90
11035;DHT22;5571;48.110;-1.706;2023-07-13T03:18:28;16.40;99.90
11035;DHT22;5571;48.110;-1.706;2023-07-13T03:20:54;16.50;99.90
11035;DHT22;5571;48.110;-1.706;2023-07-13T03:23:21;16.50;99.90
11035;DHT22;5571;48.110;-1.706;2023-07-13T03:25:47;16.50;99.90
11035;DHT22;5571;48.110;-1.706;2023-07-13T03:28:14;16.40;99.90
11035;DHT22;5571;48.110;-1.706;2023-07-13T03:30:40;16.40;99.90
11035;DHT22;5571;48.110;-1.706;2023-07-13T03:33:05;16.40;99.90
11035;DHT22;5571;48.110;-1.706;2023-07-13T03:35:31;16.40;99.90
11035;DHT22;5571;48.110;-1.706;2023-07-13T03:37:58;16.40;99.90
11035;DHT22;5571;48.110;-1.706;2023-07-13T03:40:25;16.20;99.90
11035;DHT22;5571;48.110;-1.706;2023-07-13T03:42:52;16.30;99.90
11035;DHT22;5571;48.110;-1.706;2023-07-13T03:45:18;16.10;99.90
11035;DHT22;5571;48.110;-1.706;2023-07-13T03:47:43;16.10;99.90
11035;DHT22;5571;48.110;-1.706;2023-07-13T03:50:09;16.00;99.90
11035;DHT22;5571;48.110;-1.706;2023-07-13T03:52:35;16.00;99.90
11035;DHT22;5571;48.110;-1.706;2023-07-13T03:55:01;16.10;99.90
11035;DHT22;5571;48.110;-1.706;2023-07-13T03:57:26;16.20;99.90
11035;DHT22;5571;48.110;-1.706;2023-07-13T03:59:52;16.20;99.90
11035;DHT22;5571;48.110;-1.706;2023-07-13T04:02:18;16.40;99.90
11035;DHT22;5571;48.110;-1.706;2023-07-13T04:04:43;16.30;99.90
11035;DHT22;5571;48.110;-1.706;2023-07-13T04:07:09;16.20;99.90
11035;DHT22;5571;48.110;-1.706;2023-07-13T04:09:35;16.30;99.90
11035;DHT22;5571;48.110;-1.706;2023-07-13T04:12:01;16.40;99.90
11035;DHT22;5571;48.110;-1.706;2023-07-13T04:14:27;16.40;99.90
11035;DHT22;5571;48.110;-1.706;2023-07-13T04:16:53;16.30;99.90
11035;DHT22;5571;48.110;-1.706;2023-07-13T04:19:20;16.20;99.90
11035;DHT22;5571;48.110;-1.706;2023-07-13T04:21:45;16.10;99.90
11035;DHT22;5571;48.110;-1.706;2023-07-13T04:24:11;16.30;99.90
11035;DHT22;5571;48.110;-1.706;2023-07-13T04:26:37;16.30;99.90
11035;DHT22;5571;48.110;-1.706;2023-07-13T04:29:04;16.20;99.90
11035;DHT22;5571;48.110;-1.706;2023-07-13T04:31:30;16.30;99.90
11035;DHT22;5571;48.110;-1.706;2023-07-13T04:33:56;16.30;99.90
11035;DHT22;5571;48.110;-1.706;2023-07-13T04:36:21;16.40;99.90
11035;DHT22;5571;48.110;-1.706;2023-07-13T04:38:47;16.30;99.90
11035;DHT22;5571;48.110;-1.706;2023-07-13T04:41:14;16.20;99.90
11035;DHT22;5571;48.110;-1.706;2023-07-13T04:43:40;16.20;99.90
11035;DHT22;5571;48.110;-1.706;2023-07-13T04:46:17;16.10;99.90
11035;DHT22;5571;48.110;-1.706;2023-07-13T04:48:45;16.10;99.90
11035;DHT22;5571;48.110;-1.706;2023-07-13T04:51:10;16.00;99.90
11035;DHT22;5571;48.110;-1.706;2023-07-13T04:53:37;16.10;99.90
11035;DHT22;5571;48.110;-1.706;2023-07-13T04:56:03;16.10;99.90
11035;DHT22;5571;48.110;-1.706;2023-07-13T04:58:29;16.10;99.90
11035;DHT22;5571;48.110;-1.706;2023-07-13T05:01:00;16.10;99.90
11035;DHT22;5571;48.110;-1.706;2023-07-13T05:03:26;16.20;99.90
11035;DHT22;5571;48.110;-1.706;2023-07-13T05:05:59;16.10;99.90
11035;DHT22;5571;48.110;-1.706;2023-07-13T05:08:25;16.20;99.90
11035;DHT22;5571;48.110;-1.706;2023-07-13T05:10:51;16.30;99.90
11035;DHT22;5571;48.110;-1.706;2023-07-13T05:13:17;16.20;99.90
11035;DHT22;5571;48.110;-1.706;2023-07-13T05:15:43;16.20;99.90
11035;DHT22;5571;48.110;-1.706;2023-07-13T05:18:09;16.20;99.90
11035;DHT22;5571;48.110;-1.706;2023-07-13T05:20:34;16.40;99.90
11035;DHT22;5571;48.110;-1.706;2023-07-13T05:23:00;16.30;99.90
11035;DHT22;5571;48.110;-1.706;2023-07-13T05:25:25;16.20;99.90
11035;DHT22;5571;48.110;-1.706;2023-07-13T05:27:51;16.30;99.90
11035;DHT22;5571;48.110;-1.706;2023-07-13T05:30:17;16.20;99.90
11035;DHT22;5571;48.110;-1.706;2023-07-13T05:32:42;16.20;99.90
11035;DHT22;5571;48.110;-1.706;2023-07-13T05:35:08;16.20;99.90
11035;DHT22;5571;48.110;-1.706;2023-07-13T05:37:34;16.30;99.90
11035;DHT22;5571;48.110;-1.706;2023-07-13T05:40:00;16.40;99.90
11035;DHT22;5571;48.110;-1.706;2023-07-13T05:42:26;16.40;99.90
11035;DHT22;5571;48.110;-1.706;2023-07-13T05:44:52;16.40;99.90
11035;DHT22;5571;48.110;-1.706;2023-07-13T05:47:17;16.40;99.90
11035;DHT22;5571;48.110;-1.706;2023-07-13T05:49:43;16.40;99.90
11035;DHT22;5571;48.110;-1.706;2023-07-13T05:52:08;16.40;99.90
11035;DHT22;5571;48.110;-1.706;2023-07-13T05:54:35;16.50;99.90
11035;DHT22;5571;48.110;-1.706;2023-07-13T05:57:01;16.40;99.90
11035;DHT22;5571;48.110;-1.706;2023-07-13T05:59:26;16.30;99.90
11035;DHT22;5571;48.110;-1.706;2023-07-13T06:01:52;16.30;99.90
11035;DHT22;5571;48.110;-1.706;2023-07-13T06:04:18;16.30;99.90
11035;DHT22;5571;48.110;-1.706;2023-07-13T06:06:45;16.40;99.90
11035;DHT22;5571;48.110;-1.706;2023-07-13T06:09:10;16.40;99.90
11035;DHT22;5571;48.110;-1.706;2023-07-13T06:11:36;16.40;99.90
11035;DHT22;5571;48.110;-1.706;2023-07-13T06:14:02;16.40;99.90
11035;DHT22;5571;48.110;-1.706;2023-07-13T06:16:29;16.50;99.90
11035;DHT22;5571;48.110;-1.706;2023-07-13T06:18:54;16.40;99.90
11035;DHT22;5571;48.110;-1.706;2023-07-13T06:21:21;16.50;99.90
11035;DHT22;5571;48.110;-1.706;2023-07-13T06:23:49;16.50;99.90
11035;DHT22;5571;48.110;-1.706;2023-07-13T06:26:15;16.40;99.90
11035;DHT22;5571;48.110;-1.706;2023-07-13T06:28:41;16.50;99.90
11035;DHT22;5571;48.110;-1.706;2023-07-13T06:31:08;16.60;99.90
11035;DHT22;5571;48.110;-1.706;2023-07-13T06:33:34;16.70;99.90
11035;DHT22;5571;48.110;-1.706;2023-07-13T06:36:01;16.80;99.90
11035;DHT22;5571;48.110;-1.706;2023-07-13T06:38:26;16.80;99.90
11035;DHT22;5571;48.110;-1.706;2023-07-13T06:40:52;16.90;99.90
11035;DHT22;5571;48.110;-1.706;2023-07-13T06:43:17;16.90;99.90
11035;DHT22;5571;48.110;-1.706;2023-07-13T06:45:47;16.80;99.90
11035;DHT22;5571;48.110;-1.706;2023-07-13T06:48:18;16.80;99.90
11035;DHT22;5571;48.110;-1.706;2023-07-13T06:50:44;16.80;99.90
11035;DHT22;5571;48.110;-1.706;2023-07-13T06:53:11;16.80;99.90
11035;DHT22;5571;48.110;-1.706;2023-07-13T06:55:37;16.80;99.90
11035;DHT22;5571;48.110;-1.706;2023-07-13T06:58:03;16.80;99.90
11035;DHT22;5571;48.110;-1.706;2023-07-13T07:00:29;16.90;99.90
11035;DHT22;5571;48.110;-1.706;2023-07-13T07:02:55;16.90;99.90
11035;DHT22;5571;48.110;-1.706;2023-07-13T07:05:21;17.00;99.90
11035;DHT22;5571;48.110;-1.706;2023-07-13T07:07:51;17.10;99.90
11035;DHT22;5571;48.110;-1.706;2023-07-13T07:10:17;17.20;99.90
11035;DHT22;5571;48.110;-1.706;2023-07-13T07:12:43;17.30;99.90
11035;DHT22;5571;48.110;-1.706;2023-07-13T07:15:09;17.40;99.90
11035;DHT22;5571;48.110;-1.706;2023-07-13T07:17:34;17.50;99.90
11035;DHT22;5571;48.110;-1.706;2023-07-13T07:20:00;17.60;99.90
11035;DHT22;5571;48.110;-1.706;2023-07-13T07:22:26;17.60;99.90
11035;DHT22;5571;48.110;-1.706;2023-07-13T07:24:55;17.50;99.90
11035;DHT22;5571;48.110;-1.706;2023-07-13T07:27:21;17.50;99.90
11035;DHT22;5571;48.110;-1.706;2023-07-13T07:29:47;17.50;99.90
11035;DHT22;5571;48.110;-1.706;2023-07-13T07:32:12;17.50;99.90
11035;DHT22;5571;48.110;-1.706;2023-07-13T07:34:38;17.50;99.90
11035;DHT22;5571;48.110;-1.706;2023-07-13T07:37:04;17.60;99.90
11035;DHT22;5571;48.110;-1.706;2023-07-13T07:39:29;17.70;99.90
11035;DHT22;5571;48.110;-1.706;2023-07-13T07:41:55;17.80;99.90
11035;DHT22;5571;48.110;-1.706;2023-07-13T07:44:21;17.80;99.90
11035;DHT22;5571;48.110;-1.706;2023-07-13T07:46:47;17.70;99.90
11035;DHT22;5571;48.110;-1.706;2023-07-13T07:49:13;17.70;99.90
11035;DHT22;5571;48.110;-1.706;2023-07-13T07:51:39;17.80;99.90
11035;DHT22;5571;48.110;-1.706;2023-07-13T07:54:05;17.90;99.90
11035;DHT22;5571;48.110;-1.706;2023-07-13T07:56:30;18.10;99.90
11035;DHT22;5571;48.110;-1.706;2023-07-13T07:58:56;18.20;99.90
11035;DHT22;5571;48.110;-1.706;2023-07-13T08:01:22;18.20;99.90
11035;DHT22;5571;48.110;-1.706;2023-07-13T08:03:47;18.20;99.90
11035;DHT22;5571;48.110;-1.706;2023-07-13T08:06:13;18.40;99.90
11035;DHT22;5571;48.110;-1.706;2023-07-13T08:08:39;18.50;99.90
11035;DHT22;5571;48.110;-1.706;2023-07-13T08:11:06;18.70;99.90
11035;DHT22;5571;48.110;-1.706;2023-07-13T08:13:32;19.00;99.90
11035;DHT22;5571;48.110;-1.706;2023-07-13T08:15:58;19.20;99.90
11035;DHT22;5571;48.110;-1.706;2023-07-13T08:18:24;19.40;99.90
11035;DHT22;5571;48.110;-1.706;2023-07-13T08:20:50;19.40;99.90
11035;DHT22;5571;48.110;-1.706;2023-07-13T08:23:15;19.30;99.90
11035;DHT22;5571;48.110;-1.706;2023-07-13T08:25:42;19.30;99.90
11035;DHT22;5571;48.110;-1.706;2023-07-13T08:28:08;19.30;99.90
11035;DHT22;5571;48.110;-1.706;2023-07-13T08:30:34;19.30;99.90
11035;DHT22;5571;48.110;-1.706;2023-07-13T08:32:59;19.40;99.90
11035;DHT22;5571;48.110;-1.706;2023-07-13T08:35:25;19.40;99.90
11035;DHT22;5571;48.110;-1.706;2023-07-13T08:37:51;19.40;99.90
11035;DHT22;5571;48.110;-1.706;2023-07-13T08:40:17;19.50;99.90
11035;DHT22;5571;48.110;-1.706;2023-07-13T08:42:48;19.70;99.90
11035;DHT22;5571;48.110;-1.706;2023-07-13T08:48:00;20.10;99.90
11035;DHT22;5571;48.110;-1.706;2023-07-13T08:50:57;20.10;99.90
11035;DHT22;5571;48.110;-1.706;2023-07-13T08:53:24;20.10;99.90
11035;DHT22;5571;48.110;-1.706;2023-07-13T08:55:58;20.30;99.90
11035;DHT22;5571;48.110;-1.706;2023-07-13T08:58:25;20.30;99.90
11035;DHT22;5571;48.110;-1.706;2023-07-13T09:01:13;20.40;99.90
11035;DHT22;5571;48.110;-1.706;2023-07-13T09:03:50;20.40;99.90
11035;DHT22;5571;48.110;-1.706;2023-07-13T09:06:23;20.50;99.90
11035;DHT22;5571;48.110;-1.706;2023-07-13T09:09:07;20.50;99.90
11035;DHT22;5571;48.110;-1.706;2023-07-13T09:11:49;20.50;99.90
11035;DHT22;5571;48.110;-1.706;2023-07-13T09:14:42;20.80;99.90
11035;DHT22;5571;48.110;-1.706;2023-07-13T09:17:20;20.70;99.90
11035;DHT22;5571;48.110;-1.706;2023-07-13T09:20:35;20.90;99.90
11035;DHT22;5571;48.110;-1.706;2023-07-13T09:22:41;21.00;99.90
11035;DHT22;5571;48.110;-1.706;2023-07-13T09:27:40;21.20;99.90
11035;DHT22;5571;48.110;-1.706;2023-07-13T09:32:50;21.00;99.90
11035;DHT22;5571;48.110;-1.706;2023-07-13T09:35:20;20.80;99.90
11035;DHT22;5571;48.110;-1.706;2023-07-13T09:37:47;20.70;99.90
11035;DHT22;5571;48.110;-1.706;2023-07-13T09:40:44;20.70;99.90
11035;DHT22;5571;48.110;-1.706;2023-07-13T09:43:14;20.50;99.90
11035;DHT22;5571;48.110;-1.706;2023-07-13T09:45:41;20.50;99.90
11035;DHT22;5571;48.110;-1.706;2023-07-13T09:48:12;20.50;99.90
11035;DHT22;5571;48.110;-1.706;2023-07-13T09:50:39;20.50;99.90
11035;DHT22;5571;48.110;-1.706;2023-07-13T09:53:12;20.50;99.90
11035;DHT22;5571;48.110;-1.706;2023-07-13T09:55:40;20.40;99.90
11035;DHT22;5571;48.110;-1.706;2023-07-13T09:58:19;20.50;99.90
11035;DHT22;5571;48.110;-1.706;2023-07-13T10:00:59;20.50;99.90
11035;DHT22;5571;48.110;-1.706;2023-07-13T10:03:30;20.50;99.90
11035;DHT22;5571;48.110;-1.706;2023-07-13T10:06:14;20.60;99.90
11035;DHT22;5571;48.110;-1.706;2023-07-13T10:08:40;20.90;99.90
11035;DHT22;5571;48.110;-1.706;2023-07-13T10:11:21;21.00;99.90
11035;DHT22;5571;48.110;-1.706;2023-07-13T10:14:02;21.20;99.90
11035;DHT22;5571;48.110;-1.706;2023-07-13T10:16:30;21.40;99.90
11035;DHT22;5571;48.110;-1.706;2023-07-13T10:19:04;21.50;99.90
11035;DHT22;5571;48.110;-1.706;2023-07-13T10:21:37;21.50;99.90
11035;DHT22;5571;48.110;-1.706;2023-07-13T10:24:17;21.40;99.90
11035;DHT22;5571;48.110;-1.706;2023-07-13T10:27:19;21.60;99.90
11035;DHT22;5571;48.110;-1.706;2023-07-13T10:29:47;21.60;99.90
11035;DHT22;5571;48.110;-1.706;2023-07-13T10:32:13;21.70;99.90
11035;DHT22;5571;48.110;-1.706;2023-07-13T10:34:46;21.80;99.90
11035;DHT22;5571;48.110;-1.706;2023-07-13T10:37:20;21.80;99.90
11035;DHT22;5571;48.110;-1.706;2023-07-13T10:39:46;22.10;99.90
11035;DHT22;5571;48.110;-1.706;2023-07-13T10:42:17;22.30;99.90
11035;DHT22;5571;48.110;-1.706;2023-07-13T10:44:47;22.10;99.90
11035;DHT22;5571;48.110;-1.706;2023-07-13T10:47:15;22.10;99.90
11035;DHT22;5571;48.110;-1.706;2023-07-13T10:49:43;22.20;99.90
11035;DHT22;5571;48.110;-1.706;2023-07-13T10:55:54;22.50;99.90
11035;DHT22;5571;48.110;-1.706;2023-07-13T10:58:38;22.60;99.90
11035;DHT22;5571;48.110;-1.706;2023-07-13T11:01:14;22.60;99.90
11035;DHT22;5571;48.110;-1.706;2023-07-13T11:08:56;22.20;99.90
11035;DHT22;5571;48.110;-1.706;2023-07-13T11:18:50;22.50;99.90
11035;DHT22;5571;48.110;-1.706;2023-07-13T11:23:45;23.20;99.90
11035;DHT22;5571;48.110;-1.706;2023-07-13T11:31:50;23.10;99.90
11035;DHT22;5571;48.110;-1.706;2023-07-13T11:34:21;23.00;99.90
11035;DHT22;5571;48.110;-1.706;2023-07-13T11:36:49;23.00;99.90
11035;DHT22;5571;48.110;-1.706;2023-07-13T11:41:59;22.70;99.90
11035;DHT22;5571;48.110;-1.706;2023-07-13T11:44:27;22.80;99.90
11035;DHT22;5571;48.110;-1.706;2023-07-13T11:47:09;22.70;99.90
11035;DHT22;5571;48.110;-1.706;2023-07-13T11:49:48;22.60;99.90
11035;DHT22;5571;48.110;-1.706;2023-07-13T11:52:18;22.60;99.90
11035;DHT22;5571;48.110;-1.706;2023-07-13T11:54:51;22.50;99.90
11035;DHT22;5571;48.110;-1.706;2023-07-13T11:57:27;22.50;99.90
11035;DHT22;5571;48.110;-1.706;2023-07-13T11:59:55;22.60;99.90
11035;DHT22;5571;48.110;-1.706;2023-07-13T12:02:32;22.40;99.90
11035;DHT22;5571;48.110;-1.706;2023-07-13T12:05:00;22.50;99.90
11035;DHT22;5571;48.110;-1.706;2023-07-13T12:07:30;22.60;99.90
11035;DHT22;5571;48.110;-1.706;2023-07-13T12:10:21;22.60;99.90
11035;DHT22;5571;48.110;-1.706;2023-07-13T12:13:08;22.80;99.90
11035;DHT22;5571;48.110;-1.706;2023-07-13T12:15:39;22.80;99.90
11035;DHT22;5571;48.110;-1.706;2023-07-13T12:18:31;22.80;99.90
11035;DHT22;5571;48.110;-1.706;2023-07-13T12:20:59;22.60;99.90
11035;DHT22;5571;48.110;-1.706;2023-07-13T12:23:33;22.60;99.90
11035;DHT22;5571;48.110;-1.706;2023-07-13T12:26:02;22.60;99.90
11035;DHT22;5571;48.110;-1.706;2023-07-13T12:31:08;22.70;99.90
11035;DHT22;5571;48.110;-1.706;2023-07-13T12:33:39;22.80;99.90
11035;DHT22;5571;48.110;-1.706;2023-07-13T12:36:08;23.10;99.90
11035;DHT22;5571;48.110;-1.706;2023-07-13T12:38:36;23.40;99.90
11035;DHT22;5571;48.110;-1.706;2023-07-13T12:41:02;23.50;99.90
11035;DHT22;5571;48.110;-1.706;2023-07-13T12:43:33;23.20;99.90
11035;DHT22;5571;48.110;-1.706;2023-07-13T12:46:05;23.10;99.90
11035;DHT22;5571;48.110;-1.706;2023-07-13T12:48:42;23.00;99.90
11035;DHT22;5571;48.110;-1.706;2023-07-13T12:51:14;23.00;99.90
11035;DHT22;5571;48.110;-1.706;2023-07-13T12:53:48;23.00;99.90
11035;DHT22;5571;48.110;-1.706;2023-07-13T12:56:20;23.00;99.90
11035;DHT22;5571;48.110;-1.706;2023-07-13T12:58:47;22.80;99.90
11035;DHT22;5571;48.110;-1.706;2023-07-13T13:01:23;22.90;99.90
11035;DHT22;5571;48.110;-1.706;2023-07-13T13:03:53;22.90;99.90
11035;DHT22;5571;48.110;-1.706;2023-07-13T13:08:47;22.90;99.90
11035;DHT22;5571;48.110;-1.706;2023-07-13T13:11:14;23.10;99.90
11035;DHT22;5571;48.110;-1.706;2023-07-13T13:13:42;23.30;99.90
11035;DHT22;5571;48.110;-1.706;2023-07-13T13:16:42;23.40;99.90
11035;DHT22;5571;48.110;-1.706;2023-07-13T13:21:47;23.20;99.90
11035;DHT22;5571;48.110;-1.706;2023-07-13T13:24:17;23.70;99.90
11035;DHT22;5571;48.110;-1.706;2023-07-13T13:26:45;23.60;99.90
11035;DHT22;5571;48.110;-1.706;2023-07-13T13:29:14;23.60;99.90
11035;DHT22;5571;48.110;-1.706;2023-07-13T13:31:40;23.60;99.90
11035;DHT22;5571;48.110;-1.706;2023-07-13T13:34:14;23.60;99.90
11035;DHT22;5571;48.110;-1.706;2023-07-13T13:36:40;23.80;99.90
11035;DHT22;5571;48.110;-1.706;2023-07-13T13:39:25;23.90;99.90
11035;DHT22;5571;48.110;-1.706;2023-07-13T13:41:53;23.50;99.90
11035;DHT22;5571;48.110;-1.706;2023-07-13T13:44:20;23.30;99.90
11035;DHT22;5571;48.110;-1.706;2023-07-13T13:46:53;23.20;99.90
11035;DHT22;5571;48.110;-1.706;2023-07-13T13:49:23;23.20;99.90
11035;DHT22;5571;48.110;-1.706;2023-07-13T13:51:49;23.20;99.90
11035;DHT22;5571;48.110;-1.706;2023-07-13T13:54:17;22.90;99.90
11035;DHT22;5571;48.110;-1.706;2023-07-13T13:56:45;23.10;99.90
11035;DHT22;5571;48.110;-1.706;2023-07-13T13:59:11;23.10;99.90
11035;DHT22;5571;48.110;-1.706;2023-07-13T14:01:38;22.90;99.90
11035;DHT22;5571;48.110;-1.706;2023-07-13T14:04:05;23.10;99.90
11035;DHT22;5571;48.110;-1.706;2023-07-13T14:06:32;23.30;99.90
11035;DHT22;5571;48.110;-1.706;2023-07-13T14:08:57;23.50;99.90
11035;DHT22;5571;48.110;-1.706;2023-07-13T14:11:23;23.60;99.90
11035;DHT22;5571;48.110;-1.706;2023-07-13T14:13:52;23.70;99.90
11035;DHT22;5571;48.110;-1.706;2023-07-13T14:16:20;24.00;99.90
11035;DHT22;5571;48.110;-1.706;2023-07-13T14:18:47;24.10;99.90
11035;DHT22;5571;48.110;-1.706;2023-07-13T14:21:20;24.00;99.90
11035;DHT22;5571;48.110;-1.706;2023-07-13T14:23:47;24.00;99.90
11035;DHT22;5571;48.110;-1.706;2023-07-13T14:26:15;23.60;99.90
11035;DHT22;5571;48.110;-1.706;2023-07-13T14:28:50;23.50;99.90
11035;DHT22;5571;48.110;-1.706;2023-07-13T14:31:17;23.60;99.90
11035;DHT22;5571;48.110;-1.706;2023-07-13T14:33:43;23.80;99.90
11035;DHT22;5571;48.110;-1.706;2023-07-13T14:36:23;23.70;99.90
11035;DHT22;5571;48.110;-1.706;2023-07-13T14:38:50;23.60;99.90
11035;DHT22;5571;48.110;-1.706;2023-07-13T14:41:16;23.30;99.90
11035;DHT22;5571;48.110;-1.706;2023-07-13T14:43:41;23.30;99.90
11035;DHT22;5571;48.110;-1.706;2023-07-13T14:46:22;23.20;99.90
11035;DHT22;5571;48.110;-1.706;2023-07-13T14:48:49;23.20;99.90
11035;DHT22;5571;48.110;-1.706;2023-07-13T14:51:15;23.10;99.90
11035;DHT22;5571;48.110;-1.706;2023-07-13T14:53:41;23.10;99.90
11035;DHT22;5571;48.110;-1.706;2023-07-13T14:56:11;23.30;99.90
11035;DHT22;5571;48.110;-1.706;2023-07-13T14:58:37;23.40;99.90
11035;DHT22;5571;48.110;-1.706;2023-07-13T15:01:11;23.50;99.90
11035;DHT22;5571;48.110;-1.706;2023-07-13T15:03:43;23.40;99.90
11035;DHT22;5571;48.110;-1.706;2023-07-13T15:06:13;23.50;99.90
11035;DHT22;5571;48.110;-1.706;2023-07-13T15:08:39;23.30;99.90
11035;DHT22;5571;48.110;-1.706;2023-07-13T15:11:07;23.10;99.90
11035;DHT22;5571;48.110;-1.706;2023-07-13T15:13:32;23.10;99.90
11035;DHT22;5571;48.110;-1.706;2023-07-13T15:15:59;23.10;99.90
11035;DHT22;5571;48.110;-1.706;2023-07-13T15:18:25;23.10;99.90
11035;DHT22;5571;48.110;-1.706;2023-07-13T15:20:52;23.20;99.90
11035;DHT22;5571;48.110;-1.706;2023-07-13T15:23:21;23.30;99.90
11035;DHT22;5571;48.110;-1.706;2023-07-13T15:25:48;23.60;99.90
11035;DHT22;5571;48.110;-1.706;2023-07-13T15:28:14;23.30;99.90
11035;DHT22;5571;48.110;-1.706;2023-07-13T15:30:43;23.10;99.90
11035;DHT22;5571;48.110;-1.706;2023-07-13T15:33:24;23.30;99.90
11035;DHT22;5571;48.110;-1.706;2023-07-13T15:35:50;23.40;99.90
11035;DHT22;5571;48.110;-1.706;2023-07-13T15:40:47;23.40;99.90
11035;DHT22;5571;48.110;-1.706;2023-07-13T15:43:14;23.50;99.90
11035;DHT22;5571;48.110;-1.706;2023-07-13T15:45:41;23.60;99.90
11035;DHT22;5571;48.110;-1.706;2023-07-13T15:48:17;23.50;99.90
11035;DHT22;5571;48.110;-1.706;2023-07-13T15:50:48;23.40;99.90
11035;DHT22;5571;48.110;-1.706;2023-07-13T15:53:20;23.40;99.90
11035;DHT22;5571;48.110;-1.706;2023-07-13T15:55:47;23.20;99.90
11035;DHT22;5571;48.110;-1.706;2023-07-13T15:58:13;23.40;99.90
11035;DHT22;5571;48.110;-1.706;2023-07-13T16:00:40;23.40;99.90
11035;DHT22;5571;48.110;-1.706;2023-07-13T16:03:07;23.60;99.90
11035;DHT22;5571;48.110;-1.706;2023-07-13T16:05:33;23.80;99.90
11035;DHT22;5571;48.110;-1.706;2023-07-13T16:07:59;23.60;99.90
11035;DHT22;5571;48.110;-1.706;2023-07-13T16:12:57;23.50;99.90
11035;DHT22;5571;48.110;-1.706;2023-07-13T16:15:24;23.60;99.90
11035;DHT22;5571;48.110;-1.706;2023-07-13T16:17:49;23.50;99.90
11035;DHT22;5571;48.110;-1.706;2023-07-13T16:20:17;23.60;99.90
11035;DHT22;5571;48.110;-1.706;2023-07-13T16:22:47;23.60;99.90
11035;DHT22;5571;48.110;-1.706;2023-07-13T16:25:19;23.50;99.90